Alamo, California
Current Conditions -  °F | °C
As of 2:53 PM on Monday 20 Oct 2014 (Local Time) from KCCR Reporting Station
Overcast Overcast  
Wind Chill: 68°   Ceiling: 5500
Heat Index: 68°   Visibility: 10mi
Dew Point: 52°   Wind: 9mph
Humidity: 56%   Direction: 260°W
Pressure: 29.95"   Gusts: NA
Location:  37.85°N, 122.03°W
Report Text: KCCR 202153Z 26008KT 10SM FEW041 OVC055 20/11 A2995 RMK AO2 RAB19E28 SLP129 P0000 T02000111
Loading
Personal Weather Stations






























Interactive Weather Map
Tropical Storm Tracking
New forecast layout! Learn more

10-Day Weather Forecast

Advertisements
Track Severe Weather on mobile